»·PEaware :: N333ZS KLAX-KSNA

N333ZS :: KLAX-KSNA

FLIGHT INFORMATION

Flight Status: Arrived
Operator: Privately registered:
United States
More flights under this callsign
Pilot: Judd H. (29974)
Aircraft: CESSNA 182 SKYLANE
(C182)
More flights by this aircraft type
Origin: KLAX Los Angeles Intl
United States
Destination: KSNA John Wayne-Orange Co
United States
More flights between these airports :: More routes between these airports
Route: +SLI8 SLI
File this flight plan on PilotEdge
Remarks:
Altitude:
(Current/Filed)
4,000ft
Speed:
(Current/Filed)
120kts
Departed: 19-Oct-20 12:56 PM
Arrived: 19-Oct-20 01:33 PM
Distance/Time
Traveled:
31nm/0:37
Distance/Time
To Go:
Arrived

Flight Plot

Page will automatically refresh every two minutes.

Flight plan parsing failed; only flown route is shown


Map Options




Map Legend


Flown Route
Filed Route
Departure Airport
Arrival Airport
Navaid (VOR, NDB)
Fix

Horizontal Profiles

Position Reports

Time Latitude Longitude Heading Altitude Ground
Speed
19-Oct-20 12:36 33.933062 -118.403457 174 129ft 0kts
19-Oct-20 12:37 33.933061 -118.403457 174 129ft 0kts
19-Oct-20 12:38 33.933060 -118.403457 174 129ft 0kts
19-Oct-20 12:39 33.933058 -118.403457 174 129ft 0kts
19-Oct-20 12:40 33.933057 -118.403457 174 129ft 0kts
19-Oct-20 12:41 33.933056 -118.403456 174 129ft 0kts
19-Oct-20 12:42 33.933055 -118.403456 174 129ft 0kts
19-Oct-20 12:43 33.933054 -118.403456 174 129ft 0kts
19-Oct-20 12:44 33.933052 -118.403456 174 129ft 0kts
19-Oct-20 12:45 33.933051 -118.403456 174 129ft 0kts
19-Oct-20 12:46 33.933050 -118.403456 174 129ft 0kts
19-Oct-20 12:47 33.933049 -118.403456 174 129ft 0kts
19-Oct-20 12:48 33.933426 -118.403085 3 129ft 13kts
19-Oct-20 12:49 33.934480 -118.398018 81 129ft 20kts
19-Oct-20 12:50 33.935205 -118.391489 82 129ft 10kts
19-Oct-20 12:51 33.935959 -118.383758 83 129ft 15kts
19-Oct-20 12:52 33.936494 -118.382711 356 129ft 0kts
19-Oct-20 12:53 33.936496 -118.382711 356 129ft 0kts
19-Oct-20 12:54 33.937251 -118.383686 263 129ft 21kts
19-Oct-20 12:55 33.934577 -118.411636 262 555ft 106kts
19-Oct-20 12:56 33.926742 -118.446673 214 1179ft 118kts
19-Oct-20 12:57 33.895624 -118.459620 210 1843ft 119kts
19-Oct-20 12:58 33.866009 -118.477141 209 2519ft 117kts
19-Oct-20 12:59 33.835658 -118.494361 206 3035ft 125kts
19-Oct-20 13:00 33.803659 -118.479726 142 3545ft 129kts
19-Oct-20 13:01 33.775802 -118.452858 140 4002ft 139kts
19-Oct-20 13:02 33.754349 -118.415196 89 4001ft 141kts
19-Oct-20 13:03 33.758575 -118.368843 80 4000ft 139kts
19-Oct-20 13:04 33.761256 -118.322202 83 4001ft 139kts
19-Oct-20 13:05 33.764654 -118.276097 82 3999ft 138kts
19-Oct-20 13:06 33.768244 -118.230034 81 4000ft 138kts
19-Oct-20 13:07 33.771904 -118.184186 81 4000ft 138kts
19-Oct-20 13:08 33.775637 -118.138240 80 4000ft 138kts
19-Oct-20 13:09 33.780608 -118.092407 80 4001ft 137kts
19-Oct-20 13:10 33.788701 -118.048070 65 4000ft 135kts
19-Oct-20 13:11 33.802663 -118.006705 67 3996ft 131kts
19-Oct-20 13:12 33.817726 -117.966597 62 3999ft 131kts
19-Oct-20 13:13 33.834207 -117.927262 61 4000ft 131kts
19-Oct-20 13:14 33.851006 -117.888007 61 4000ft 131kts
19-Oct-20 13:15 33.866484 -117.848067 65 4000ft 132kts
19-Oct-20 13:16 33.880692 -117.809125 65 3996ft 119kts
19-Oct-20 13:17 33.894378 -117.773324 62 4005ft 116kts
19-Oct-20 13:18 33.909008 -117.738298 62 4001ft 116kts
19-Oct-20 13:20 33.931372 -117.713282 358 4003ft 113kts
19-Oct-20 13:21 33.959822 -117.712076 63 4022ft 117kts
19-Oct-20 13:22 33.939596 -117.698400 197 3908ft 116kts
19-Oct-20 13:23 33.911703 -117.715333 200 3962ft 111kts
19-Oct-20 13:24 33.884491 -117.733170 212 3977ft 112kts
19-Oct-20 13:25 33.858306 -117.752943 213 3456ft 104kts
19-Oct-20 13:26 33.832465 -117.768114 208 3348ft 108kts
19-Oct-20 13:27 33.807813 -117.785412 204 2802ft 101kts
19-Oct-20 13:28 33.782638 -117.800206 211 2227ft 100kts
19-Oct-20 13:29 33.758501 -117.815788 207 1773ft 97kts
19-Oct-20 13:30 33.734129 -117.831467 209 1289ft 102kts
19-Oct-20 13:31 33.707959 -117.848044 210 775ft 100kts
19-Oct-20 13:32 33.684727 -117.863133 209 166ft 89kts
19-Oct-20 13:33 33.675769 -117.869550 301 59ft 0kts
19-Oct-20 13:34 33.675770 -117.869552 301 59ft 0kts
19-Oct-20 13:35 33.675472 -117.871470 221 59ft 3kts
19-Oct-20 13:35 33.675440 -117.871505 222 59ft 0kts
19-Oct-20 13:37 33.675440 -117.871505 222 59ft 0kts

Navigation Log

Ident Type
Flight plan parsing failed, navigation log unavailable